Terminal Aerodrome Forecast
Issued by NWS

Home | Current Version | Previous Version | Text Only | Print | Product List | Glossary On
Versions: 1 2 3 4 5 6 7 8 9 10 11 12 13 14 15 16
000
FTUS42 KTBW 251400 AAA
TAFRSW
TAF AMD
KRSW 251419Z 2514/2612 13005KT P6SM BKN025 BKN250
     FM251600 24005KT P6SM VCTS SCT040CB
     FM260000 VRB03KT P6SM SCT035 BKN250
     FM260400 00000KT P6SM FEW035 SCT250=

USA.gov is the U.S. government's official web portal to all federal, state and local government web resources and services.